createdAt,value
2018-02-23T00:02:26.606Z,4.20
2018-02-23T00:04:54.805Z,4.20
2018-02-23T00:07:22.989Z,4.20
2018-02-23T00:09:50.416Z,4.20
2018-02-23T00:12:18.636Z,4.00
2018-02-23T00:14:46.066Z,4.00
2018-02-23T00:17:13.505Z,4.00
2018-02-23T00:19:41.698Z,4.00
2018-02-23T00:22:09.117Z,4.00
2018-02-23T00:24:36.558Z,3.90
2018-02-23T00:27:03.982Z,3.90
2018-02-23T00:29:31.457Z,3.90
2018-02-23T00:31:58.912Z,3.90
2018-02-23T00:34:26.337Z,3.80
2018-02-23T00:36:53.776Z,3.80
2018-02-23T00:39:21.968Z,3.70
2018-02-23T00:41:49.395Z,3.70
2018-02-23T00:44:17.741Z,3.70
2018-02-23T00:46:45.180Z,3.80
2018-02-23T00:49:12.601Z,3.70
2018-02-23T00:51:40.815Z,3.70
2018-02-23T00:54:08.252Z,3.70
2018-02-23T00:56:35.685Z,3.60
2018-02-23T00:59:03.114Z,3.60
2018-02-23T01:01:30.551Z,3.60
2018-02-23T01:03:57.978Z,3.60
2018-02-23T01:06:25.629Z,3.60
2018-02-23T01:08:53.830Z,3.50
2018-02-23T01:11:21.268Z,3.50
2018-02-23T01:16:47.217Z,3.50
2018-02-23T01:19:14.772Z,3.60
2018-02-23T01:21:42.226Z,3.50
2018-02-23T01:24:10.546Z,3.50
2018-02-23T01:26:38.089Z,3.50
2018-02-23T01:29:05.664Z,3.50
2018-02-23T01:31:33.254Z,3.40
2018-02-23T01:34:00.778Z,3.30
2018-02-23T01:36:28.298Z,3.30
2018-02-23T01:38:55.891Z,3.30
2018-02-23T01:41:23.468Z,3.30
2018-02-23T01:43:51.026Z,3.30
2018-02-23T01:46:18.534Z,3.30
2018-02-23T01:48:45.974Z,3.20
2018-02-23T01:51:13.517Z,3.20
2018-02-23T01:53:41.035Z,3.20
2018-02-23T01:56:08.568Z,3.20
2018-02-23T01:58:36.864Z,3.10
2018-02-23T02:01:04.471Z,3.10
2018-02-23T02:03:32.013Z,3.10
2018-02-23T02:05:59.573Z,3.10
2018-02-23T02:08:27.190Z,3.10
2018-02-23T02:10:54.720Z,3.10
2018-02-23T02:13:22.298Z,3.10
2018-02-23T02:15:49.897Z,3.00
2018-02-23T02:18:19.020Z,2.90
2018-02-23T02:20:46.525Z,2.90
2018-02-23T02:23:13.983Z,3.00
2018-02-23T02:25:41.466Z,2.90
2018-02-23T02:28:09.067Z,2.90
2018-02-23T02:30:36.590Z,2.90
2018-02-23T02:33:04.144Z,2.90
2018-02-23T02:35:31.650Z,2.90
2018-02-23T02:37:59.098Z,2.90
2018-02-23T02:40:26.589Z,2.90
2018-02-23T02:42:54.098Z,2.90
2018-02-23T02:45:21.610Z,2.90
2018-02-23T02:47:49.199Z,2.80
2018-02-23T02:50:16.754Z,2.70
2018-02-23T02:52:45.027Z,2.70
2018-02-23T02:55:12.540Z,2.70
2018-02-23T02:57:40.088Z,2.60
2018-02-23T03:00:07.692Z,2.70
2018-02-23T03:02:35.205Z,2.70
2018-02-23T03:05:03.495Z,2.70
2018-02-23T03:07:30.955Z,2.70
2018-02-23T03:09:58.538Z,2.70
2018-02-23T03:12:26.018Z,2.70
2018-02-23T03:14:53.581Z,2.70
2018-02-23T03:17:21.036Z,2.70
2018-02-23T03:19:48.518Z,2.60
2018-02-23T03:22:16.030Z,2.60
2018-02-23T03:24:43.580Z,2.60
2018-02-23T03:27:11.098Z,2.50
2018-02-23T03:29:38.615Z,2.50
2018-02-23T03:32:06.094Z,2.50
2018-02-23T03:34:33.602Z,2.50
2018-02-23T03:37:01.129Z,2.50
2018-02-23T03:39:28.666Z,2.40
2018-02-23T03:41:56.230Z,2.50
2018-02-23T03:44:23.751Z,2.50
2018-02-23T03:46:51.382Z,2.50
2018-02-23T03:49:18.963Z,2.50
2018-02-23T03:51:46.508Z,2.50
2018-02-23T03:54:14.030Z,2.50
2018-02-23T03:56:43.517Z,2.50
2018-02-23T03:59:11.050Z,2.50
2018-02-23T04:01:38.537Z,2.50
2018-02-23T04:04:06.072Z,2.60
2018-02-23T04:06:33.642Z,2.50
2018-02-23T04:09:02.050Z,2.40
2018-02-23T04:11:29.594Z,2.40
2018-02-23T04:13:57.902Z,2.30
2018-02-23T04:16:25.666Z,2.30
2018-02-23T04:18:53.212Z,2.30
2018-02-23T04:21:21.270Z,2.30
2018-02-23T04:23:48.773Z,2.20
2018-02-23T04:26:16.254Z,2.30
2018-02-23T04:28:43.779Z,2.40
2018-02-23T04:31:11.269Z,2.30
2018-02-23T04:33:38.800Z,2.30
2018-02-23T04:36:06.419Z,2.20
2018-02-23T04:38:34.760Z,2.20
2018-02-23T04:41:02.298Z,2.20
2018-02-23T04:43:29.883Z,2.10
2018-02-23T04:45:57.500Z,2.10
2018-02-23T04:48:25.055Z,2.10
2018-02-23T04:50:52.575Z,2.00
2018-02-23T04:53:20.903Z,2.20
2018-02-23T04:55:48.479Z,2.20
2018-02-23T04:58:16.028Z,2.40
2018-02-23T05:00:43.662Z,2.40
2018-02-23T05:03:11.188Z,2.50
2018-02-23T05:05:38.787Z,2.40
2018-02-23T05:08:06.345Z,2.50
2018-02-23T05:10:33.935Z,2.70
2018-02-23T05:13:01.412Z,2.70
2018-02-23T05:15:28.942Z,2.70
2018-02-23T05:17:56.369Z,2.80
2018-02-23T05:20:24.568Z,2.70
2018-02-23T05:22:52.093Z,2.70
2018-02-23T05:25:20.439Z,2.60
2018-02-23T05:27:47.982Z,2.60
2018-02-23T05:30:15.435Z,2.50
2018-02-23T05:32:42.998Z,2.50
2018-02-23T05:35:10.490Z,2.50
2018-02-23T05:37:38.023Z,2.40
2018-02-23T05:40:05.432Z,2.30
2018-02-23T05:42:32.941Z,2.30
2018-02-23T05:45:00.460Z,2.20
2018-02-23T05:47:27.971Z,2.30
2018-02-23T05:49:55.520Z,2.20
2018-02-23T05:52:22.966Z,2.20
2018-02-23T05:54:50.542Z,2.20
2018-02-23T05:57:19.596Z,2.20
2018-02-23T05:59:47.034Z,2.20
2018-02-23T06:02:15.304Z,2.20
2018-02-23T06:04:43.598Z,2.20
2018-02-23T06:07:11.107Z,2.20
2018-02-23T06:09:38.532Z,2.10
2018-02-23T06:12:05.989Z,2.10
2018-02-23T06:14:33.429Z,1.90
2018-02-23T06:17:00.862Z,1.90
2018-02-23T06:19:34.091Z,1.90
2018-02-23T06:22:01.611Z,1.80
2018-02-23T06:24:29.149Z,2.00
2018-02-23T06:26:56.632Z,2.00
2018-02-23T06:29:24.888Z,2.30
2018-02-23T06:31:52.380Z,2.30
2018-02-23T06:34:20.135Z,2.10
2018-02-23T06:36:47.636Z,1.90
2018-02-23T06:39:17.110Z,2.10
2018-02-23T06:41:45.394Z,2.30
2018-02-23T06:44:12.963Z,2.30
2018-02-23T06:46:40.739Z,2.20
2018-02-23T06:49:08.255Z,2.40
2018-02-23T06:51:35.866Z,2.40
2018-02-23T06:54:03.507Z,2.50
2018-02-23T06:56:31.128Z,2.40
2018-02-23T06:58:58.709Z,2.50
2018-02-23T07:01:27.067Z,2.60
2018-02-23T07:03:54.639Z,2.60
2018-02-23T07:06:23.419Z,2.70
2018-02-23T07:09:01.255Z,2.90
2018-02-23T07:11:46.599Z,2.70
2018-02-23T07:16:47.533Z,3.10
2018-02-23T07:19:15.130Z,3.20
2018-02-23T07:21:43.474Z,3.10
2018-02-23T07:24:11.077Z,3.10
2018-02-23T07:26:39.637Z,3.10
2018-02-23T07:29:07.988Z,3.00
2018-02-23T07:31:35.557Z,3.00
2018-02-23T07:34:03.431Z,3.00
2018-02-23T07:36:31.125Z,3.10
2018-02-23T07:38:58.736Z,3.10
2018-02-23T07:41:26.292Z,3.00
2018-02-23T07:43:53.850Z,3.00
2018-02-23T07:46:21.411Z,3.10
2018-02-23T07:48:48.926Z,3.10
2018-02-23T07:51:16.494Z,3.10
2018-02-23T07:53:47.634Z,3.70
2018-02-23T07:56:15.207Z,4.00
2018-02-23T07:58:42.889Z,3.90
2018-02-23T08:01:10.465Z,3.90
2018-02-23T08:03:38.095Z,4.60
2018-02-23T08:06:05.629Z,5.40
2018-02-23T08:08:33.143Z,6.20
2018-02-23T08:11:00.737Z,7.20
2018-02-23T08:13:28.257Z,8.40
2018-02-23T08:15:55.808Z,9.40
2018-02-23T08:18:23.455Z,9.70
2018-02-23T08:20:51.013Z,10.10
2018-02-23T08:23:19.178Z,10.70
2018-02-23T08:25:46.762Z,10.80
2018-02-23T08:28:14.347Z,10.20
2018-02-23T08:30:41.941Z,10.50
2018-02-23T08:33:10.295Z,10.00
2018-02-23T08:35:37.888Z,10.00
2018-02-23T08:38:05.453Z,9.40
2018-02-23T08:40:32.979Z,9.60
2018-02-23T08:43:00.476Z,9.50
2018-02-23T08:45:28.080Z,9.30
2018-02-23T08:47:55.628Z,9.30
2018-02-23T08:50:23.118Z,9.70
2018-02-23T08:52:50.716Z,10.30
2018-02-23T08:55:19.958Z,12.10
2018-02-23T08:57:47.500Z,12.10
2018-02-23T09:00:18.562Z,12.60
2018-02-23T09:02:46.139Z,13.00
2018-02-23T09:05:13.663Z,14.20
2018-02-23T09:07:41.150Z,14.30
2018-02-23T09:10:08.638Z,14.60
2018-02-23T09:12:36.966Z,14.70
2018-02-23T09:15:04.431Z,14.70
2018-02-23T09:17:31.989Z,14.80
2018-02-23T09:19:59.562Z,15.20
2018-02-23T09:22:28.089Z,14.20
2018-02-23T09:24:55.689Z,14.20
2018-02-23T09:27:24.005Z,16.00
2018-02-23T09:29:51.551Z,15.90
2018-02-23T09:32:38.341Z,16.00
2018-02-23T09:35:05.912Z,15.90
2018-02-23T09:37:33.473Z,16.30
2018-02-23T09:40:01.044Z,16.90
2018-02-23T09:42:29.377Z,17.90
2018-02-23T09:44:57.025Z,17.80
2018-02-23T09:47:24.586Z,18.40
2018-02-23T09:49:52.142Z,18.50
2018-02-23T09:52:19.704Z,18.40
2018-02-23T09:54:47.214Z,16.90
2018-02-23T09:57:14.779Z,17.00
2018-02-23T09:59:42.415Z,17.40
2018-02-23T10:02:10.100Z,17.80
2018-02-23T10:04:37.690Z,18.40
2018-02-23T10:07:05.209Z,19.20
2018-02-23T10:09:32.779Z,19.30
2018-02-23T10:12:00.298Z,19.60
2018-02-23T10:14:27.880Z,19.30
2018-02-23T10:16:55.470Z,18.50
2018-02-23T10:19:23.752Z,17.50
2018-02-23T10:21:51.460Z,17.50
2018-02-23T10:24:20.752Z,17.50
2018-02-23T10:26:48.333Z,17.50
2018-02-23T10:29:15.906Z,17.80
2018-02-23T10:31:43.534Z,18.20
2018-02-23T10:34:11.080Z,18.80
2018-02-23T10:36:38.657Z,19.90
2018-02-23T10:39:06.272Z,20.10
2018-02-23T10:41:34.621Z,20.40
2018-02-23T10:44:02.221Z,20.30
2018-02-23T10:46:29.749Z,20.20
2018-02-23T10:48:57.293Z,20.00
2018-02-23T10:51:24.862Z,20.10
2018-02-23T10:53:52.447Z,19.70
2018-02-23T10:56:20.956Z,19.40
2018-02-23T10:58:48.583Z,19.40
2018-02-23T11:01:16.887Z,19.40
2018-02-23T11:03:44.450Z,19.30
2018-02-23T11:06:12.110Z,20.10
2018-02-23T11:08:39.751Z,19.80
2018-02-23T11:11:07.316Z,19.60
2018-02-23T11:13:34.894Z,18.40
2018-02-23T11:16:02.470Z,18.90
2018-02-23T11:18:29.995Z,19.40
2018-02-23T11:20:58.284Z,19.60
2018-02-23T11:23:25.842Z,19.60
2018-02-23T11:25:53.515Z,19.30
2018-02-23T11:28:21.094Z,18.60
2018-02-23T11:30:48.776Z,18.30
2018-02-23T11:33:16.403Z,19.40
2018-02-23T11:35:43.939Z,20.00
2018-02-23T11:38:11.378Z,20.60
2018-02-23T11:40:38.803Z,21.20
2018-02-23T11:43:06.240Z,21.50
2018-02-23T11:45:33.665Z,21.50
2018-02-23T11:48:01.102Z,20.60
2018-02-23T11:50:28.581Z,20.80
2018-02-23T11:52:55.982Z,20.40
2018-02-23T11:55:23.411Z,20.50
2018-02-23T11:57:51.613Z,19.80
2018-02-23T12:00:19.524Z,19.80
2018-02-23T12:02:47.727Z,19.60
2018-02-23T12:05:15.931Z,19.30
2018-02-23T12:07:43.396Z,19.30
2018-02-23T12:10:10.820Z,19.60
2018-02-23T12:12:39.038Z,19.70
2018-02-23T12:15:06.477Z,19.70
2018-02-23T12:17:33.916Z,20.20
2018-02-23T12:20:02.131Z,19.40
2018-02-23T12:22:29.564Z,19.40
2018-02-23T12:24:56.993Z,18.70
2018-02-23T12:27:25.225Z,19.10
2018-02-23T12:29:52.648Z,19.00
2018-02-23T12:32:20.089Z,18.90
2018-02-23T12:34:47.528Z,19.20
2018-02-23T12:37:14.988Z,19.30
2018-02-23T12:39:42.413Z,19.90
2018-02-23T12:42:09.872Z,20.30
2018-02-23T12:44:37.357Z,20.10
2018-02-23T12:47:04.740Z,20.30
2018-02-23T12:49:32.931Z,20.50
2018-02-23T12:52:00.577Z,20.50
2018-02-23T12:54:28.797Z,20.80
2018-02-23T12:56:56.242Z,20.70
2018-02-23T12:59:23.652Z,20.50
2018-02-23T13:01:51.869Z,20.60
2018-02-23T13:04:20.453Z,20.70
2018-02-23T13:06:47.884Z,20.70
2018-02-23T13:09:16.073Z,20.30
2018-02-23T13:11:43.510Z,20.20
2018-02-23T13:14:11.724Z,20.10
2018-02-23T13:16:39.186Z,20.10
2018-02-23T13:19:06.597Z,19.90
2018-02-23T13:21:35.015Z,19.70
2018-02-23T13:24:02.492Z,19.70
2018-02-23T13:26:29.960Z,20.10
2018-02-23T13:28:57.418Z,20.40
2018-02-23T13:31:24.868Z,20.10
2018-02-23T13:33:52.320Z,19.30
2018-02-23T13:36:19.788Z,19.30
2018-02-23T13:38:47.761Z,19.60
2018-02-23T13:41:20.809Z,20.10
2018-02-23T13:43:48.258Z,20.20
2018-02-23T13:46:15.689Z,20.40
2018-02-23T13:48:43.133Z,20.40
2018-02-23T13:51:10.571Z,20.10
2018-02-23T13:53:43.629Z,19.80
2018-02-23T13:56:11.061Z,19.90
2018-02-23T13:58:39.252Z,20.10
2018-02-23T14:01:06.695Z,20.10
2018-02-23T14:03:34.904Z,20.20
2018-02-23T14:06:04.502Z,20.10
2018-02-23T14:08:31.947Z,20.00
2018-02-23T14:10:59.386Z,19.30
2018-02-23T14:13:27.591Z,19.50
2018-02-23T14:15:55.028Z,19.50
2018-02-23T14:18:23.244Z,19.60
2018-02-23T14:20:50.691Z,19.60
2018-02-23T14:23:18.123Z,19.80
2018-02-23T14:25:46.325Z,19.50
2018-02-23T14:28:13.783Z,19.50
2018-02-23T14:30:41.204Z,19.80
2018-02-23T14:33:09.413Z,18.80
2018-02-23T14:35:36.851Z,18.80
2018-02-23T14:38:04.791Z,18.40
2018-02-23T14:40:32.257Z,17.80
2018-02-23T14:43:00.511Z,17.30
2018-02-23T14:45:27.961Z,17.30
2018-02-23T14:47:55.388Z,16.90
2018-02-23T14:50:34.682Z,16.70
2018-02-23T14:53:02.887Z,15.30
2018-02-23T14:55:30.338Z,15.30
2018-02-23T14:57:58.534Z,13.00
2018-02-23T15:00:25.963Z,13.00
2018-02-23T15:02:53.397Z,12.10
2018-02-23T15:05:20.837Z,12.10
2018-02-23T15:07:48.274Z,12.20
2018-02-23T15:10:15.715Z,11.90
2018-02-23T15:12:43.146Z,11.50
2018-02-23T15:15:11.349Z,10.80
2018-02-23T15:17:38.798Z,10.80
2018-02-23T15:20:06.987Z,10.30
2018-02-23T15:22:34.426Z,10.30
2018-02-23T15:25:01.904Z,10.30
2018-02-23T15:27:29.326Z,10.30
2018-02-23T15:29:57.540Z,10.50
2018-02-23T15:32:28.925Z,10.50
2018-02-23T15:34:56.357Z,10.90
2018-02-23T15:37:23.789Z,11.40
2018-02-23T15:39:51.223Z,11.80
2018-02-23T15:42:21.289Z,12.20
2018-02-23T15:44:48.727Z,12.20
2018-02-23T15:47:16.158Z,12.40
2018-02-23T15:49:45.171Z,12.70
2018-02-23T15:52:15.506Z,12.70
2018-02-23T15:54:42.953Z,12.50
2018-02-23T15:57:10.421Z,12.40
2018-02-23T15:59:37.857Z,12.10
2018-02-23T16:02:05.292Z,11.50
2018-02-23T16:04:33.597Z,10.80
2018-02-23T16:07:00.957Z,10.80
2018-02-23T16:09:28.393Z,10.10
2018-02-23T16:11:56.588Z,9.30
2018-02-23T16:14:24.047Z,9.30
2018-02-23T16:16:51.464Z,9.10
2018-02-23T16:19:18.914Z,9.20
2018-02-23T16:21:46.339Z,9.00
2018-02-23T16:24:13.761Z,8.80
2018-02-23T16:26:41.964Z,8.60
2018-02-23T16:29:09.403Z,8.50
2018-02-23T16:31:36.823Z,8.50
2018-02-23T16:34:04.262Z,8.40
2018-02-23T16:36:31.690Z,7.90
2018-02-23T16:38:59.109Z,7.90
2018-02-23T16:41:27.319Z,8.00
2018-02-23T16:43:54.761Z,8.00
2018-02-23T16:46:23.119Z,7.90
2018-02-23T16:48:51.317Z,7.80
2018-02-23T16:51:18.747Z,7.80
2018-02-23T16:53:46.952Z,7.70
2018-02-23T16:56:14.386Z,7.70
2018-02-23T16:58:42.972Z,7.60
2018-02-23T17:01:11.177Z,7.40
2018-02-23T17:03:38.609Z,7.40
2018-02-23T17:06:06.812Z,7.40
2018-02-23T17:08:34.253Z,7.30
2018-02-23T17:11:01.691Z,7.40
2018-02-23T17:13:29.899Z,7.30
2018-02-23T17:15:57.328Z,7.30
2018-02-23T17:18:25.585Z,7.20
2018-02-23T17:20:53.019Z,7.20
2018-02-23T17:23:20.448Z,7.00
2018-02-23T17:25:47.895Z,6.80
2018-02-23T17:28:15.330Z,6.90
2018-02-23T17:30:43.523Z,6.90
2018-02-23T17:33:10.961Z,6.90
2018-02-23T17:35:39.209Z,6.80
2018-02-23T17:38:06.597Z,6.70
2018-02-23T17:40:34.809Z,6.80
2018-02-23T17:43:02.276Z,6.80
2018-02-23T17:45:29.720Z,6.70
2018-02-23T17:47:57.952Z,6.60
2018-02-23T17:50:26.157Z,6.20
2018-02-23T17:52:53.588Z,6.20
2018-02-23T17:55:21.792Z,6.00
2018-02-23T17:57:49.228Z,6.00
2018-02-23T18:00:17.437Z,6.20
2018-02-23T18:02:44.874Z,6.20
2018-02-23T18:05:12.298Z,6.30
2018-02-23T18:07:39.751Z,6.10
2018-02-23T18:10:07.181Z,6.20
2018-02-23T18:12:34.619Z,5.90
2018-02-23T18:15:02.035Z,5.80
2018-02-23T18:17:30.282Z,5.70
2018-02-23T18:19:57.769Z,5.70
2018-02-23T18:22:25.190Z,5.90
2018-02-23T18:24:52.622Z,5.90
2018-02-23T18:27:20.801Z,5.90
2018-02-23T18:29:48.220Z,6.00
2018-02-23T18:32:16.423Z,5.70
2018-02-23T18:34:43.853Z,5.70
2018-02-23T18:37:12.057Z,5.60
2018-02-23T18:39:39.489Z,5.60
2018-02-23T18:42:07.723Z,5.70
2018-02-23T18:44:35.145Z,5.70
2018-02-23T18:47:02.586Z,5.70
2018-02-23T18:49:30.805Z,5.70
2018-02-23T18:51:58.256Z,5.70
2018-02-23T18:54:25.751Z,5.40
2018-02-23T18:56:53.142Z,5.50
2018-02-23T18:59:20.950Z,5.50
2018-02-23T19:01:48.395Z,5.30
2018-02-23T19:04:15.874Z,5.20
2018-02-23T19:06:43.337Z,5.20
2018-02-23T19:09:10.834Z,5.10
2018-02-23T19:11:38.221Z,5.10
2018-02-23T19:14:05.632Z,5.30
2018-02-23T19:16:33.837Z,5.10
2018-02-23T19:19:01.264Z,5.00
2018-02-23T19:21:29.460Z,4.90
2018-02-23T19:23:56.888Z,4.90
2018-02-23T19:26:24.321Z,4.80
2018-02-23T19:28:51.773Z,4.60
2018-02-23T19:31:19.205Z,4.70
2018-02-23T19:33:46.631Z,4.70
2018-02-23T19:36:14.845Z,4.70
2018-02-23T19:38:42.258Z,4.70
2018-02-23T19:41:10.465Z,4.80
2018-02-23T19:43:37.918Z,4.80
2018-02-23T19:46:05.358Z,4.70
2018-02-23T19:48:33.555Z,4.40
2018-02-23T19:51:00.996Z,4.40
2018-02-23T19:53:29.192Z,4.60
2018-02-23T19:55:56.626Z,4.60
2018-02-23T19:58:24.063Z,4.60
2018-02-23T20:00:51.485Z,4.30
2018-02-23T20:03:19.683Z,4.30
2018-02-23T20:05:47.123Z,4.30
2018-02-23T20:08:14.564Z,4.20
2018-02-23T20:10:41.969Z,4.20
2018-02-23T20:13:10.185Z,4.10
2018-02-23T20:15:37.625Z,4.10
2018-02-23T20:18:05.071Z,3.90
2018-02-23T20:20:32.488Z,4.00
2018-02-23T20:22:59.938Z,4.40
2018-02-23T20:25:27.362Z,4.70
2018-02-23T20:27:54.800Z,4.60
2018-02-23T20:30:23.025Z,4.40
2018-02-23T20:32:50.465Z,4.40
2018-02-23T20:35:17.904Z,4.40
2018-02-23T20:37:45.341Z,4.50
2018-02-23T20:40:13.528Z,4.20
2018-02-23T20:42:40.981Z,4.20
2018-02-23T20:45:09.165Z,4.40
2018-02-23T20:47:36.661Z,4.40
2018-02-23T20:50:04.086Z,4.20
2018-02-23T20:52:31.520Z,4.20
2018-02-23T20:54:59.717Z,4.10
2018-02-23T20:57:27.144Z,4.00
2018-02-23T20:59:55.334Z,4.00
2018-02-23T21:02:23.537Z,3.80
2018-02-23T21:04:50.980Z,3.80
2018-02-23T21:07:18.408Z,3.70
2018-02-23T21:09:46.614Z,4.10
2018-02-23T21:12:14.060Z,4.10
2018-02-23T21:14:41.484Z,3.90
2018-02-23T21:17:08.923Z,3.90
2018-02-23T21:19:36.357Z,3.80
2018-02-23T21:22:03.781Z,3.70
2018-02-23T21:24:31.987Z,3.60
2018-02-23T21:26:59.418Z,3.60
2018-02-23T21:29:27.611Z,3.70
2018-02-23T21:31:55.034Z,3.70
2018-02-23T21:34:23.251Z,3.70
2018-02-23T21:36:50.729Z,3.70
2018-02-23T21:39:18.149Z,3.60
2018-02-23T21:41:54.277Z,3.70
2018-02-23T21:44:21.726Z,3.60
2018-02-23T21:46:49.144Z,3.40
2018-02-23T21:49:16.587Z,3.60
2018-02-23T21:51:44.010Z,3.80
2018-02-23T21:54:11.478Z,3.60
2018-02-23T21:56:39.681Z,3.20
2018-02-23T21:59:07.863Z,3.40
2018-02-23T22:01:35.300Z,3.40
2018-02-23T22:04:02.745Z,3.40
2018-02-23T22:06:30.937Z,3.30
2018-02-23T22:08:58.376Z,3.30
2018-02-23T22:11:26.580Z,3.40
2018-02-23T22:13:54.017Z,3.40
2018-02-23T22:16:21.466Z,3.30
2018-02-23T22:18:49.668Z,3.10
2018-02-23T22:21:17.096Z,3.10
2018-02-23T22:23:45.291Z,3.00
2018-02-23T22:26:12.717Z,3.00
2018-02-23T22:28:40.207Z,3.10
2018-02-23T22:31:07.996Z,3.20
2018-02-23T22:33:35.434Z,3.20
2018-02-23T22:36:02.854Z,3.20
2018-02-23T22:38:30.287Z,3.30
2018-02-23T22:40:57.717Z,3.20
2018-02-23T22:43:25.153Z,3.10
2018-02-23T22:45:52.572Z,3.20
2018-02-23T22:48:19.996Z,2.90
2018-02-23T22:50:47.438Z,2.90
2018-02-23T22:53:14.859Z,2.90
2018-02-23T22:55:43.065Z,2.80
2018-02-23T22:58:10.504Z,2.80
2018-02-23T23:00:38.724Z,2.40
2018-02-23T23:03:06.141Z,2.40
2018-02-23T23:05:34.352Z,2.30
2018-02-23T23:08:01.801Z,2.30
2018-02-23T23:10:29.221Z,2.20
2018-02-23T23:12:57.419Z,2.00
2018-02-23T23:15:24.854Z,2.00
2018-02-23T23:17:53.042Z,2.10
2018-02-23T23:20:21.396Z,2.10
2018-02-23T23:22:48.828Z,2.20
2018-02-23T23:25:16.261Z,2.40
2018-02-23T23:27:43.680Z,2.10
2018-02-23T23:30:11.882Z,2.50
2018-02-23T23:32:39.304Z,2.50
2018-02-23T23:35:06.721Z,2.50
2018-02-23T23:37:34.145Z,2.30
2018-02-23T23:40:01.621Z,2.60
2018-02-23T23:42:29.040Z,2.70
2018-02-23T23:44:57.241Z,2.40
2018-02-23T23:47:24.666Z,2.40
2018-02-23T23:49:52.884Z,2.50
2018-02-23T23:52:20.316Z,2.50
2018-02-23T23:54:47.757Z,2.40
2018-02-23T23:57:15.946Z,2.40
2018-02-23T23:59:44.149Z,2.50
